Time;durP1;ratioP1;P1;durP2;ratioP2;P2;SDS_P1;SDS_P2;PMS_P1;PMS_P2;Temp;Humidity;BMP_temperature;BMP_pressure;BME280_temperature;BME280_humidity;BME280_pressure;Samples;Min_cycle;Max_cycle;Signal;HPM_P1;HPM_P2
2022/01/17 00:01:45;;;;;;;15.90;3.60;;;;;;;2.88;94.23;98401.79;1737742;81;20936;-79
2022/01/17 00:04:12;;;;;;;15.80;3.30;;;;;;;2.87;94.13;98415.59;1742434;81;21113;-79
2022/01/17 00:06:41;;;;;;;10.43;2.98;;;;;;;2.86;93.95;98433.25;1740900;80;20980;-79
2022/01/17 00:09:07;;;;;;;8.98;2.77;;;;;;;2.86;93.96;98431.97;1740731;81;20928;-79
2022/01/17 00:11:35;;;;;;;14.33;3.35;;;;;;;2.87;94.00;98414.30;1736880;81;20940;-79
2022/01/17 00:14:04;;;;;;;17.73;3.77;;;;;;;2.85;93.63;98407.06;1733979;81;21712;-79
2022/01/17 00:16:40;;;;;;;12.65;3.08;;;;;;;2.86;93.54;98411.80;1736148;81;21159;-78
2022/01/17 00:19:28;;;;;;;10.30;2.77;;;;;;;2.86;93.39;98413.92;1731669;81;21387;-79
2022/01/17 00:21:33;;;;;;;11.18;2.55;;;;;;;2.85;93.29;98419.95;1733062;81;21060;-79
2022/01/17 00:23:59;;;;;;;12.28;3.20;;;;;;;2.85;93.35;98411.38;1736932;81;21583;-79
2022/01/17 00:26:26;;;;;;;9.58;2.62;;;;;;;2.84;93.45;98407.13;1745403;81;21019;-78
2022/01/17 00:28:53;;;;;;;17.10;3.20;;;;;;;2.84;93.35;98406.69;1737395;81;21935;-79
2022/01/17 00:31:19;;;;;;;12.28;2.80;;;;;;;2.85;93.32;98409.64;1730704;81;20970;-78
2022/01/17 00:33:46;;;;;;;13.35;2.55;;;;;;;2.87;93.12;98382.08;1738184;81;21009;-79
2022/01/17 00:36:12;;;;;;;9.30;2.52;;;;;;;2.88;93.03;98401.79;1731875;81;21017;-79
2022/01/17 00:38:39;;;;;;;10.72;3.05;;;;;;;2.88;93.05;98381.16;1741600;81;20983;-79
2022/01/17 00:41:06;;;;;;;9.10;2.10;;;;;;;2.88;92.89;98378.59;1738104;81;21068;-79
2022/01/17 00:43:34;;;;;;;13.60;2.27;;;;;;;2.88;92.79;98355.38;1735651;81;21058;-79
2022/01/17 00:46:01;;;;;;;11.73;3.08;;;;;;;2.89;92.64;98369.98;1736989;81;21044;-78
2022/01/17 00:48:27;;;;;;;9.38;3.17;;;;;;;2.88;92.55;98339.91;1731869;81;21082;-80
2022/01/17 00:50:54;;;;;;;16.37;3.10;;;;;;;2.87;92.31;98343.86;1738285;81;21515;-79
2022/01/17 00:53:20;;;;;;;19.95;3.02;;;;;;;2.86;92.47;98345.60;1741392;81;21641;-79
2022/01/17 00:55:47;;;;;;;14.40;3.22;;;;;;;2.87;92.19;98353.72;1743098;81;21507;-79
2022/01/17 00:58:14;;;;;;;12.55;2.60;;;;;;;2.87;92.33;98327.94;1725916;81;20942;-80
2022/01/17 01:00:42;;;;;;;10.70;2.77;;;;;;;2.86;92.12;98341.73;1724627;81;21799;-79
2022/01/17 01:03:15;;;;;;;9.48;2.25;;;;;;;2.86;92.26;98326.27;1755940;80;21005;-80
2022/01/17 01:05:43;;;;;;;12.93;2.45;;;;;;;2.86;91.81;98355.91;1762382;80;21029;-79
2022/01/17 01:08:10;;;;;;;10.05;2.85;;;;;;;2.85;91.78;98307.81;1723312;81;21076;-80
2022/01/17 01:10:39;;;;;;;6.80;1.82;;;;;;;2.87;91.77;98291.84;1724072;81;21621;-80
2022/01/17 01:13:06;;;;;;;11.10;2.75;;;;;;;2.90;91.60;98289.14;1721152;81;20987;-78
2022/01/17 01:18:13;;;;;;;9.80;2.42;;;;;;;2.87;91.62;98294.42;1681589;83;21858;-79
2022/01/17 01:28:41;;;;;;;10.95;2.45;;;;;;;2.90;91.50;98267.69;1721983;81;21003;-80
2022/01/17 01:31:14;;;;;;;13.25;2.95;;;;;;;2.89;91.44;98237.20;1723356;81;21061;-79
2022/01/17 01:33:40;;;;;;;13.22;2.60;;;;;;;2.90;91.39;98238.88;1706584;82;21131;-79
2022/01/17 01:36:12;;;;;;;11.68;2.90;;;;;;;2.90;91.33;98272.84;1707608;82;21051;-79
2022/01/17 01:38:36;;;;;;;12.78;2.52;;;;;;;2.90;91.32;98215.66;1759305;80;20957;-79
2022/01/17 01:41:03;;;;;;;11.93;3.00;;;;;;;2.90;91.28;98234.17;1760641;80;21056;-79
2022/01/17 01:43:29;;;;;;;16.53;2.97;;;;;;;2.90;91.25;98216.95;1761107;80;21897;-80
2022/01/17 01:46:00;;;;;;;13.78;2.72;;;;;;;2.90;91.23;98196.33;1758891;80;21603;-79
2022/01/17 01:48:26;;;;;;;13.62;2.72;;;;;;;2.91;91.16;98171.38;1760664;80;20953;-79
2022/01/17 01:50:53;;;;;;;14.93;2.72;;;;;;;2.91;91.16;98205.77;1760651;80;21020;-78
2022/01/17 01:53:22;;;;;;;19.10;2.95;;;;;;;2.91;91.17;98192.88;1761479;80;20997;-80
2022/01/17 01:55:48;;;;;;;10.35;3.00;;;;;;;2.93;91.16;98176.49;1760663;80;21121;-80
2022/01/17 01:58:15;;;;;;;11.00;2.93;;;;;;;2.94;91.12;98157.53;1708411;82;21032;-80
2022/01/17 02:00:41;;;;;;;15.23;3.12;;;;;;;2.95;91.08;98172.13;1709287;82;21124;-79
2022/01/17 02:03:08;;;;;;;8.98;2.10;;;;;;;2.96;91.02;98164.77;1707786;82;21025;-79
2022/01/17 02:05:35;;;;;;;12.15;2.08;;;;;;;2.97;91.05;98180.61;1707795;82;20932;-79
2022/01/17 02:08:01;;;;;;;13.45;2.60;;;;;;;2.99;90.86;98182.68;1707414;82;21667;-79
2022/01/17 02:10:28;;;;;;;10.98;2.80;;;;;;;2.99;90.93;98186.55;1710498;82;21488;-79
2022/01/17 02:12:55;;;;;;;9.87;2.63;;;;;;;2.99;90.94;98181.39;1704265;82;20967;-79
2022/01/17 02:15:21;;;;;;;12.87;2.37;;;;;;;3.01;90.93;98182.17;1758829;80;21043;-79
2022/01/17 02:17:54;;;;;;;17.65;3.47;;;;;;;3.02;90.92;98157.59;1708099;82;21033;-77
2022/01/17 02:20:21;;;;;;;11.15;2.35;;;;;;;3.03;90.88;98137.84;1707739;82;22045;-77
2022/01/17 02:22:47;;;;;;;13.20;2.90;;;;;;;3.05;90.75;98114.09;1708191;82;21644;-77
2022/01/17 02:25:14;;;;;;;12.58;2.15;;;;;;;3.06;90.79;98138.99;1707408;82;21022;-78
2022/01/17 02:27:41;;;;;;;10.30;2.90;;;;;;;3.06;90.78;98144.15;1707699;82;20980;-79
2022/01/17 02:30:10;;;;;;;12.50;2.70;;;;;;;3.06;90.73;98119.19;1757840;80;21020;-77
2022/01/17 02:32:37;;;;;;;12.37;2.33;;;;;;;3.06;90.78;98139.83;1759515;80;21063;-79
2022/01/17 02:35:22;;;;;;;14.43;2.58;;;;;;;3.07;90.75;98089.08;1762998;80;20926;-79
2022/01/17 02:37:50;;;;;;;11.50;2.37;;;;;;;3.07;90.78;98094.23;1760939;80;20997;-79
2022/01/17 02:40:18;;;;;;;12.93;2.75;;;;;;;3.07;90.84;98090.38;1761765;80;21004;-80
2022/01/17 02:43:00;;;;;;;16.45;3.20;;;;;;;3.06;90.79;98060.34;1760203;80;21103;-79
2022/01/17 02:48:10;;;;;;;9.60;2.72;;;;;;;3.04;90.91;98053.12;1759538;80;22269;-78
2022/01/17 02:50:39;;;;;;;9.67;2.17;;;;;;;3.04;91.03;98037.64;1761027;80;21020;-78
2022/01/17 02:53:09;;;;;;;14.60;2.45;;;;;;;3.02;91.03;98013.66;1758940;80;20997;-79
2022/01/17 02:55:37;;;;;;;11.68;2.45;;;;;;;3.01;91.11;98017.98;1760939;80;21014;-79
2022/01/17 02:58:03;;;;;;;13.58;2.40;;;;;;;3.02;91.17;98014.49;1760779;80;21056;-80
2022/01/17 03:00:30;;;;;;;9.58;2.25;;;;;;;3.02;91.24;98002.89;1759830;80;20969;-79
2022/01/17 03:02:57;;;;;;;13.63;2.77;;;;;;;3.00;91.29;98005.18;1757428;80;20950;-79
2022/01/17 03:05:24;;;;;;;3.30;1.30;;;;;;;2.96;91.43;97988.16;1755796;80;21022;-77
2022/01/17 03:07:51;;;;;;;11.20;2.12;;;;;;;2.94;92.11;97992.53;1754162;80;21064;-79
2022/01/17 03:10:37;;;;;;;15.15;2.52;;;;;;;2.89;91.87;97965.23;1755833;80;21892;-79
2022/01/17 03:12:50;;;;;;;10.98;2.58;;;;;;;2.88;91.84;97969.98;1748784;80;21052;-79
2022/01/17 03:15:17;;;;;;;11.10;2.42;;;;;;;2.88;91.99;97955.80;1752992;80;21492;-80
2022/01/17 03:17:44;;;;;;;7.40;2.43;;;;;;;2.88;92.07;97949.36;1753453;80;20954;-76
2022/01/17 03:20:11;;;;;;;11.83;2.60;;;;;;;2.88;92.20;97950.65;1753361;80;20945;-79
2022/01/17 03:22:39;;;;;;;15.15;2.90;;;;;;;2.88;92.25;97963.53;1752910;80;22315;-80
2022/01/17 03:25:06;;;;;;;15.83;2.37;;;;;;;2.90;92.37;97941.11;1753250;80;20938;-79
2022/01/17 03:27:33;;;;;;;11.33;2.25;;;;;;;2.92;92.39;97941.06;1752605;80;20930;-79
2022/01/17 03:30:00;;;;;;;11.45;2.40;;;;;;;2.99;92.75;97955.33;1752710;80;21001;-78
2022/01/17 03:32:27;;;;;;;12.63;2.50;;;;;;;3.06;92.75;97965.77;1753271;80;20970;-79
2022/01/17 03:34:55;;;;;;;8.90;2.00;;;;;;;3.10;92.64;97944.54;1755494;80;21354;-78
2022/01/17 03:37:23;;;;;;;14.55;2.37;;;;;;;3.15;92.67;97916.80;1752949;80;21021;-80
2022/01/17 03:39:49;;;;;;;11.35;2.40;;;;;;;3.18;92.67;97888.29;1755885;80;21555;-80
2022/01/17 03:42:18;;;;;;;10.28;2.83;;;;;;;3.22;92.64;97888.55;1752710;80;21094;-77
2022/01/17 03:44:45;;;;;;;13.22;2.92;;;;;;;3.21;92.64;97864.93;1754078;80;21727;-79
2022/01/17 03:47:13;;;;;;;;;;;;;;;3.19;93.74;97869.31;1755403;80;21865;-79
2022/01/17 03:49:40;;;;;;;10.25;2.10;;;;;;;3.15;93.94;97851.05;1753476;80;20531;-80
2022/01/17 03:52:07;;;;;;;10.65;2.12;;;;;;;3.11;94.16;97825.03;1758198;80;21077;-79
2022/01/17 03:54:34;;;;;;;8.88;2.37;;;;;;;3.08;94.29;97832.88;1754971;80;20922;-80
2022/01/17 03:57:01;;;;;;;8.18;1.72;;;;;;;3.09;94.25;97851.34;1753508;80;21104;-79
2022/01/17 03:59:28;;;;;;;7.92;1.92;;;;;;;3.07;93.76;97836.37;1753434;80;21059;-79
2022/01/17 04:01:55;;;;;;;7.33;1.45;;;;;;;3.07;93.82;97855.72;1756336;80;21028;-79
2022/01/17 04:04:21;;;;;;;13.23;2.07;;;;;;;3.09;94.03;97847.47;1738123;81;21083;-80
2022/01/17 04:06:48;;;;;;;17.32;2.37;;;;;;;3.14;94.04;97842.94;1762642;80;21143;-80
2022/01/17 04:09:15;;;;;;;11.57;2.47;;;;;;;3.17;94.10;97813.59;1760591;80;21031;-80
2022/01/17 04:11:42;;;;;;;9.50;2.10;;;;;;;3.19;94.04;97822.89;1757810;80;21973;-80
2022/01/17 04:14:10;;;;;;;6.37;1.82;;;;;;;3.27;94.25;97814.80;1763828;80;21131;-80
2022/01/17 04:16:36;;;;;;;8.35;1.47;;;;;;;3.32;94.20;97823.98;1758987;80;20944;-81
2022/01/17 04:19:03;;;;;;;8.40;1.62;;;;;;;3.38;94.22;97786.73;1761045;80;20993;-79
2022/01/17 04:21:34;;;;;;;7.30;1.93;;;;;;;3.43;94.21;97823.94;1761567;80;21020;-80
2022/01/17 04:23:58;;;;;;;10.03;2.10;;;;;;;3.46;94.32;97788.95;1759975;80;21253;-80
2022/01/17 04:26:25;;;;;;;5.87;1.67;;;;;;;3.48;94.52;97787.14;1760981;80;20964;-81
2022/01/17 04:28:52;;;;;;;10.50;1.90;;;;;;;3.49;94.38;97762.99;1760462;80;21043;-80
2022/01/17 04:31:18;;;;;;;9.50;1.70;;;;;;;3.52;94.47;97791.22;1760911;80;21543;-80
2022/01/17 04:33:46;;;;;;;8.48;1.90;;;;;;;3.54;94.52;97779.91;1759144;80;21047;-80
2022/01/17 04:36:12;;;;;;;;;;;;;;;3.55;94.43;97760.10;1762705;78;21037;-80
2022/01/17 04:38:39;;;;;;;6.63;2.07;;;;;;;3.57;94.55;97773.77;1762217;80;20248;-81
2022/01/17 04:41:14;;;;;;;8.33;1.60;;;;;;;3.61;94.56;97776.56;1760489;80;20992;-81
2022/01/17 04:46:07;;;;;;;6.17;1.50;;;;;;;3.65;94.55;97762.61;1761881;80;20978;-80
2022/01/17 04:48:35;;;;;;;5.42;1.50;;;;;;;3.70;94.60;97774.83;1760855;80;21075;-79
2022/01/17 04:51:05;;;;;;;4.15;0.85;;;;;;;3.70;94.57;97743.86;1737199;81;21894;-79
2022/01/17 04:53:32;;;;;;;3.15;0.98;;;;;;;3.73;94.57;97720.47;1762772;80;21020;-80
2022/01/17 04:55:59;;;;;;;10.60;1.20;;;;;;;3.77;94.58;97724.55;1761777;80;21445;-80
2022/01/17 04:58:25;;;;;;;6.75;1.37;;;;;;;3.81;94.55;97733.81;1760016;80;21611;-80
2022/01/17 05:00:53;;;;;;;9.23;1.67;;;;;;;3.85;94.50;97708.66;1757646;81;21055;-79
2022/01/17 05:03:23;;;;;;;4.97;1.25;;;;;;;3.84;94.46;97719.92;1759224;80;21543;-80
2022/01/17 05:05:50;;;;;;;4.40;1.77;;;;;;;3.84;94.45;97734.55;1736731;81;21009;-81
2022/01/17 05:08:18;;;;;;;4.67;1.47;;;;;;;3.84;94.38;97672.59;1758475;80;21012;-81
2022/01/17 05:10:50;;;;;;;;;;;;;;;3.86;94.50;97696.59;1763447;80;21024;-80
2022/01/17 05:13:19;;;;;;;5.05;1.30;;;;;;;3.91;94.37;97662.33;1760038;80;21144;-80
2022/01/17 05:15:48;;;;;;;6.90;1.52;;;;;;;3.92;94.46;97657.53;1761021;80;20992;-79
2022/01/17 05:20:40;;;;;;;7.92;1.98;;;;;;;3.97;94.27;97646.50;1761901;80;21508;-80
2022/01/17 05:23:08;;;;;;;3.75;0.50;;;;;;;3.96;93.97;97834.63;1761278;80;21516;-90
2022/01/17 05:25:35;;;;;;;0.42;0.20;;;;;;;1.77;88.27;97927.92;1761961;80;21913;-90
2022/01/17 05:28:02;;;;;;;;;;;;;;;0.34;92.86;97919.59;1760976;80;21025;-87
2022/01/17 05:30:28;;;;;;;0.30;0.15;;;;;;;-0.33;96.85;97903.00;1756934;80;20457;-90
2022/01/17 05:32:58;;;;;;;0.42;0.20;;;;;;;-0.60;99.00;97903.88;1760075;80;21048;-89
2022/01/17 05:35:24;;;;;;;0.15;0.15;;;;;;;-0.77;100.00;97928.30;1759272;80;21071;-88
2022/01/17 05:37:52;;;;;;;0.53;0.33;;;;;;;-0.92;100.00;97910.83;1760929;80;21430;-85
2022/01/17 05:40:19;;;;;;;1.25;0.50;;;;;;;-1.02;100.00;97927.34;1762940;80;26689;-85
2022/01/17 05:42:45;;;;;;;1.07;0.40;;;;;;;-1.06;100.00;97998.33;1757242;80;20918;-84
2022/01/17 05:45:14;;;;;;;1.30;0.78;;;;;;;-1.09;100.00;97951.45;1760570;80;21030;-84
2022/01/17 05:47:41;;;;;;;0.60;0.45;;;;;;;-1.14;100.00;97956.28;1760393;80;20989;-85
2022/01/17 05:50:10;;;;;;;0.20;0.20;;;;;;;-1.16;100.00;97963.60;1761772;80;21124;-85
2022/01/17 05:52:37;;;;;;;0.30;0.30;;;;;;;-1.20;100.00;97956.45;1759607;80;21048;-84
2022/01/17 05:55:07;;;;;;;0.20;0.20;;;;;;;-1.20;100.00;97938.53;1761778;80;20953;-85
2022/01/17 05:57:33;;;;;;;1.07;0.60;;;;;;;-1.19;100.00;97970.09;1763230;80;20952;-85
2022/01/17 06:00:00;;;;;;;0.80;0.42;;;;;;;-1.21;100.00;97962.44;1760124;80;20964;-90
2022/01/17 06:02:27;;;;;;;2.30;0.57;;;;;;;-1.20;100.00;97950.50;1706060;82;21727;-88
2022/01/17 06:04:54;;;;;;;0.20;0.20;;;;;;;-1.21;100.00;97946.24;1708170;82;21061;-87
2022/01/17 06:07:20;;;;;;;1.20;0.40;;;;;;;-1.21;100.00;97950.92;1710492;81;20948;-89
2022/01/17 06:09:47;;;;;;;3.40;0.63;;;;;;;-1.21;100.00;97948.36;1708459;82;21102;-88
2022/01/17 06:12:14;;;;;;;1.55;0.50;;;;;;;-1.20;100.00;97937.25;1708881;82;21048;-88
2022/01/17 06:14:41;;;;;;;6.28;0.60;;;;;;;-1.22;100.00;97917.69;1707312;82;21471;-89
2022/01/17 06:17:08;;;;;;;2.40;1.35;;;;;;;-1.23;100.00;97957.83;1706664;82;21521;-90
2022/01/17 06:19:35;;;;;;;1.85;0.50;;;;;;;-1.22;100.00;97931.33;1704107;82;21034;-91
2022/01/17 06:22:02;;;;;;;2.02;0.70;;;;;;;-1.22;100.00;97944.13;1707457;81;21037;-90
2022/01/17 06:24:29;;;;;;;2.17;1.00;;;;;;;-1.22;100.00;97955.66;1763237;80;21013;-89
2022/01/17 06:26:58;;;;;;;3.77;0.80;;;;;;;-1.21;100.00;97968.01;1762307;80;21085;-89
2022/01/17 06:29:27;;;;;;;1.87;0.70;;;;;;;-1.22;100.00;97958.66;1759162;80;20997;-90
2022/01/17 06:31:53;;;;;;;1.25;0.50;;;;;;;-1.21;100.00;97971.41;1760101;80;20933;-90
2022/01/17 06:34:22;;;;;;;2.30;0.50;;;;;;;-1.15;100.00;97984.06;1759114;80;21132;-89
2022/01/17 06:36:49;;;;;;;3.10;0.62;;;;;;;-1.13;100.00;97984.84;1760430;80;21081;-88
2022/01/17 06:39:16;;;;;;;1.67;0.80;;;;;;;-1.11;100.00;98009.14;1721054;81;21063;-87
2022/01/17 06:41:42;;;;;;;3.02;1.05;;;;;;;-1.06;100.00;98000.06;1756973;80;21025;-87
2022/01/17 06:44:11;;;;;;;3.60;0.75;;;;;;;-1.04;100.00;97996.99;1706675;82;21176;-87
2022/01/17 06:46:39;;;;;;;3.60;0.65;;;;;;;-1.00;100.00;98016.09;1707305;82;21079;-87
2022/01/17 06:49:08;;;;;;;3.52;0.80;;;;;;;-0.94;100.00;98013.80;1706562;82;21610;-87
2022/01/17 06:51:36;;;;;;;5.55;1.72;;;;;;;-0.94;100.00;98033.01;1763739;80;21063;-86
2022/01/17 06:54:03;;;;;;;7.67;1.67;;;;;;;-0.92;99.94;98051.30;1738741;81;20913;-84
2022/01/17 06:56:32;;;;;;;5.90;0.88;;;;;;;-0.85;98.96;98076.30;1709497;82;21733;-89
2022/01/17 06:59:00;;;;;;;4.97;1.20;;;;;;;-0.81;98.74;98077.91;1726951;82;20996;-89
2022/01/17 07:01:27;;;;;;;3.12;1.22;;;;;;;-0.81;98.74;98090.73;1708607;82;21064;-91
2022/01/17 07:03:53;;;;;;;4.07;1.20;;;;;;;-0.82;98.50;98101.84;1759699;80;21084;-81
2022/01/17 07:06:20;;;;;;;4.87;1.23;;;;;;;-0.82;97.51;98105.69;1759308;80;20977;-82
2022/01/17 07:08:47;;;;;;;4.85;1.50;;;;;;;-0.76;96.59;98124.73;1760277;80;21368;-85
2022/01/17 07:11:14;;;;;;;3.62;1.27;;;;;;;-0.75;96.23;98128.99;1758899;80;20981;-85
2022/01/17 07:13:41;;;;;;;5.12;1.35;;;;;;;-0.73;94.37;98134.93;1757871;80;21492;-90
2022/01/17 07:16:07;;;;;;;2.40;1.07;;;;;;;-0.69;93.57;98127.98;1758164;81;21969;-88
2022/01/17 07:18:34;;;;;;;3.22;0.82;;;;;;;-0.70;93.73;98109.21;1758007;80;21212;-82
2022/01/17 07:21:01;;;;;;;4.10;1.17;;;;;;;-0.72;91.69;98120.39;1761421;80;20996;-83
2022/01/17 07:23:28;;;;;;;3.33;1.15;;;;;;;-0.71;92.15;98107.51;1758871;80;21020;-82
2022/01/17 07:25:55;;;;;;;2.80;1.10;;;;;;;-0.69;92.50;98110.05;1761264;80;21032;-83
2022/01/17 07:28:22;;;;;;;2.83;1.10;;;;;;;-0.68;90.80;98145.88;1760140;80;21143;-83
2022/01/17 07:30:49;;;;;;;2.52;1.62;;;;;;;-0.65;89.87;98133.86;1759714;80;21745;-84
2022/01/17 07:33:17;;;;;;;4.90;1.50;;;;;;;-0.63;90.77;98139.80;1760860;80;20962;-83
2022/01/17 07:35:45;;;;;;;4.05;1.95;;;;;;;-0.65;90.07;98146.67;1758861;80;21012;-82
2022/01/17 07:38:13;;;;;;;2.27;1.07;;;;;;;-0.64;90.73;98158.60;1759463;80;21077;-84
2022/01/17 07:40:39;;;;;;;8.48;1.85;;;;;;;-0.63;87.70;98157.73;1758243;80;21237;-87
2022/01/17 07:43:07;;;;;;;6.35;1.07;;;;;;;-0.63;86.82;98173.13;1756500;80;20953;-87
2022/01/17 07:45:36;;;;;;;;;;;;;;;-0.59;85.92;98179.83;1760131;80;20930;-85
2022/01/17 07:50:31;;;;;;;1.67;0.45;;;;;;;-0.50;86.64;98200.12;1762520;80;21024;-83
2022/01/17 07:52:57;;;;;;;;;;;;;;;-0.51;84.79;98206.11;1762135;80;21090;-84
2022/01/17 07:55:24;;;;;;;1.37;0.70;;;;;;;-0.50;81.39;98215.50;1759939;80;20094;-79
2022/01/17 07:57:50;;;;;;;3.12;0.90;;;;;;;-0.53;82.51;98222.00;1757747;80;21488;-88
2022/01/17 08:00:22;;;;;;;3.20;1.00;;;;;;;-0.58;80.80;98221.27;1759743;80;20984;-82
2022/01/17 08:02:50;;;;;;;4.03;1.20;;;;;;;-0.57;82.13;98221.66;1757521;80;20996;-87
2022/01/17 08:05:17;;;;;;;1.25;0.70;;;;;;;-0.58;83.42;98230.23;1756169;80;21885;-79
2022/01/17 08:07:44;;;;;;;;;;;;;;;-0.63;82.40;98239.77;1756597;80;20954;-85
2022/01/17 08:10:12;;;;;;;1.87;0.93;;;;;;;-0.65;79.65;98254.34;1755595;80;20153;-79
2022/01/17 08:12:46;;;;;;;5.65;1.70;;;;;;;-0.58;80.77;98261.00;1755327;80;20968;-79
2022/01/17 08:15:14;;;;;;;3.60;1.20;;;;;;;-0.56;78.22;98274.61;1757078;80;21666;-87
2022/01/17 08:17:40;;;;;;;;;;;;;;;-0.48;79.75;98282.94;1760673;80;21512;-81
2022/01/17 08:20:08;;;;;;;3.70;1.07;;;;;;;-0.45;80.80;98276.45;1754540;80;20133;-77
2022/01/17 08:22:35;;;;;;;1.22;0.85;;;;;;;-0.48;76.04;98298.33;1757250;80;21622;-84
2022/01/17 08:25:03;;;;;;;8.20;1.63;;;;;;;-0.40;79.04;98298.98;1756296;80;21032;-87
2022/01/17 08:27:30;;;;;;;4.62;1.55;;;;;;;-0.36;81.32;98282.64;1755327;80;21819;-85
2022/01/17 08:30:00;;;;;;;4.03;1.37;;;;;;;-0.36;78.44;98298.03;1752786;80;21637;-85
2022/01/17 08:32:30;;;;;;;2.67;1.30;;;;;;;-0.32;79.16;98318.86;1756087;80;20898;-83
2022/01/17 08:34:59;;;;;;;3.55;1.20;;;;;;;-0.28;79.92;98300.38;1757220;80;21139;-86
2022/01/17 08:37:27;;;;;;;2.17;0.82;;;;;;;-0.25;77.44;98298.59;1756374;80;21576;-89
2022/01/17 08:39:55;;;;;;;2.27;1.10;;;;;;;-0.16;78.29;98309.49;1754866;80;21774;-81
2022/01/17 08:42:22;;;;;;;3.42;1.07;;;;;;;-0.12;77.43;98336.73;1753755;80;21136;-81
2022/01/17 08:44:51;;;;;;;4.67;1.70;;;;;;;-0.09;77.64;98319.53;1756774;80;20999;-81
2022/01/17 08:47:20;;;;;;;3.20;1.20;;;;;;;-0.01;79.71;98319.33;1760353;80;21531;-81
2022/01/17 08:50:02;;;;;;;2.20;0.78;;;;;;;0.01;75.54;98320.14;1733209;81;21100;-81
2022/01/17 08:52:48;;;;;;;4.75;1.40;;;;;;;0.04;74.48;98313.64;1700881;82;21217;-81
2022/01/17 08:56:03;;;;;;;10.20;2.70;;;;;;;0.19;77.27;98327.31;1840073;75;26254;-80
2022/01/17 08:58:30;;;;;;;2.95;1.20;;;;;;;0.14;72.67;98356.15;1822254;78;21584;-81
2022/01/17 09:00:57;;;;;;;5.12;1.55;;;;;;;0.27;76.47;98337.38;1824326;76;21109;-80
2022/01/17 09:03:24;;;;;;;5.15;1.25;;;;;;;0.29;75.27;98361.74;1813667;77;25272;-83
2022/01/17 09:05:54;;;;;;;7.67;1.25;;;;;;;0.33;73.62;98365.89;1827643;76;20937;-83
2022/01/17 09:08:24;;;;;;;1.77;1.07;;;;;;;0.36;73.49;98352.97;1817690;76;21016;-82
2022/01/17 09:10:54;;;;;;;3.10;1.15;;;;;;;0.38;72.12;98352.50;1831563;76;21000;-83
2022/01/17 09:13:20;;;;;;;5.05;1.20;;;;;;;0.43;70.79;98345.51;1824156;76;21935;-82
2022/01/17 09:15:47;;;;;;;1.50;0.67;;;;;;;0.46;69.89;98391.64;1828289;76;21600;-81
2022/01/17 09:18:14;;;;;;;2.60;1.00;;;;;;;0.51;69.75;98355.13;1830272;76;21032;-83
2022/01/17 09:20:41;;;;;;;1.25;0.70;;;;;;;0.58;70.64;98396.42;1820440;76;28708;-83
2022/01/17 09:23:08;;;;;;;7.03;1.35;;;;;;;0.57;67.28;98400.34;1830020;76;21002;-80
2022/01/17 09:25:35;;;;;;;3.22;0.90;;;;;;;0.64;68.56;98389.86;1827156;76;21152;-82
2022/01/17 09:28:01;;;;;;;2.58;1.32;;;;;;;0.76;68.49;98423.79;1819147;76;20984;-80
2022/01/17 09:30:29;;;;;;;4.70;0.80;;;;;;;0.80;69.37;98438.22;1823638;76;21045;-79
2022/01/17 09:32:56;;;;;;;1.95;0.72;;;;;;;0.80;68.60;98417.22;1826946;76;21001;-77
2022/01/17 09:35:46;;;;;;;2.08;0.70;;;;;;;0.77;67.48;98442.16;1826904;76;21632;-80
2022/01/17 09:38:15;;;;;;;2.25;1.05;;;;;;;0.79;65.91;98442.97;1777575;78;21123;-79
2022/01/17 09:40:42;;;;;;;1.50;0.60;;;;;;;0.92;69.11;98410.88;1781822;78;20943;-80
2022/01/17 09:43:11;;;;;;;2.12;0.75;;;;;;;0.88;65.37;98427.28;1779060;79;22244;-81
2022/01/17 09:45:38;;;;;;;6.97;1.00;;;;;;;0.93;65.59;98456.27;1788651;79;21013;-81
2022/01/17 09:48:06;;;;;;;4.28;1.22;;;;;;;0.97;68.55;98439.86;1775189;79;22172;-80
2022/01/17 09:50:45;;;;;;;3.65;1.05;;;;;;;0.89;67.01;98462.36;1789955;78;21042;-80
2022/01/17 09:53:03;;;;;;;4.15;0.90;;;;;;;0.92;66.02;98469.98;1787011;78;21670;-80
2022/01/17 09:55:31;;;;;;;3.83;1.00;;;;;;;0.89;64.26;98449.52;1792478;78;21066;-81
2022/01/17 10:00:54;;;;;;;2.87;1.25;;;;;;;1.00;66.11;98486.03;1757585;79;21194;-81
2022/01/17 10:03:21;;;;;;;3.35;1.02;;;;;;;0.95;64.50;98493.02;1755178;79;21143;-80
2022/01/17 10:06:32;;;;;;;2.55;0.90;;;;;;;0.94;65.31;98491.80;1841569;76;22757;-78
2022/01/17 10:09:21;;;;;;;1.17;0.70;;;;;;;0.83;62.52;98486.95;1811897;78;27111;-80
2022/01/17 10:12:13;;;;;;;5.85;0.93;;;;;;;0.76;60.94;98538.13;1810355;78;22638;-81
2022/01/17 10:15:15;;;;;;;2.40;0.80;;;;;;;0.68;59.03;98522.06;1806990;78;20948;-80
2022/01/17 10:17:17;;;;;;;1.52;0.65;;;;;;;0.75;60.30;98513.30;1781856;78;20996;-81
2022/01/17 10:19:44;;;;;;;;;;;;;;;0.80;61.63;98524.30;1814409;78;21017;-81
2022/01/17 10:22:18;;;;;;;0.70;0.40;;;;;;;0.81;61.60;98541.39;1811449;78;20144;-81
2022/01/17 10:27:47;;;;;;;2.00;0.90;;;;;;;0.91;62.06;98558.26;1814749;78;20907;-81
2022/01/17 10:35:31;;;;;;;1.57;0.88;;;;;;;1.02;61.81;98594.80;1807113;78;20947;-81
2022/01/17 10:38:03;;;;;;;2.85;0.88;;;;;;;1.07;59.64;98604.52;1780966;79;21060;-81
2022/01/17 10:40:47;;;;;;;3.20;1.40;;;;;;;1.22;61.80;98590.85;1768700;79;21777;-79
2022/01/17 10:43:34;;;;;;;6.62;1.22;;;;;;;1.21;61.38;98563.47;1762562;79;21055;-83
2022/01/17 10:45:58;;;;;;;2.87;0.85;;;;;;;1.17;59.12;98579.84;1751837;79;21016;-85
2022/01/17 10:48:34;;;;;;;1.57;0.97;;;;;;;1.21;59.70;98609.75;1780255;79;21020;-86
2022/01/17 10:51:04;;;;;;;1.45;0.78;;;;;;;1.21;59.30;98581.46;1731446;79;21366;-83
2022/01/17 10:53:32;;;;;;;5.20;1.00;;;;;;;1.00;56.73;98631.26;1752680;79;21591;-80
2022/01/17 10:56:08;;;;;;;2.25;0.70;;;;;;;0.99;57.84;98638.58;1776676;79;20887;-85
2022/01/17 10:58:32;;;;;;;3.35;1.10;;;;;;;1.03;57.60;98656.88;1779058;79;21093;-84
2022/01/17 11:01:11;;;;;;;2.20;1.10;;;;;;;1.09;59.16;98640.04;1771036;79;21052;-84
2022/01/17 11:03:36;;;;;;;1.32;0.68;;;;;;;1.17;59.34;98651.83;1775405;79;22071;-88
